createdAt,value
2019-05-13T00:00:34.086Z,58.11
2019-05-13T00:03:03.606Z,58.05
2019-05-13T00:05:33.955Z,59.36
2019-05-13T00:08:03.517Z,59.10
2019-05-13T00:10:34.720Z,60.13
2019-05-13T00:13:04.525Z,60.61
2019-05-13T00:15:34.043Z,61.14
2019-05-13T00:18:03.860Z,61.29
2019-05-13T00:20:33.741Z,61.17
2019-05-13T00:23:04.025Z,60.54
2019-05-13T00:25:34.021Z,60.56
2019-05-13T00:28:04.176Z,61.70
2019-05-13T00:30:34.104Z,66.88
2019-05-13T00:33:03.849Z,62.22
2019-05-13T00:35:33.945Z,62.64
2019-05-13T00:38:03.865Z,61.60
2019-05-13T00:40:33.681Z,60.71
2019-05-13T00:43:03.896Z,61.65
2019-05-13T00:45:34.024Z,62.14
2019-05-13T00:48:04.685Z,62.44
2019-05-13T00:50:33.897Z,64.11
2019-05-13T00:53:04.264Z,62.60
2019-05-13T00:55:34.469Z,62.23
2019-05-13T00:58:04.361Z,62.15
2019-05-13T01:00:33.887Z,61.76
2019-05-13T01:03:04.116Z,62.39
2019-05-13T01:05:34.059Z,65.87
2019-05-13T01:08:04.199Z,64.96
2019-05-13T01:10:34.649Z,63.21
2019-05-13T01:13:04.626Z,62.96
2019-05-13T01:15:34.492Z,64.34
2019-05-13T01:18:04.061Z,63.43
2019-05-13T01:20:34.595Z,63.97
2019-05-13T01:23:03.935Z,64.34
2019-05-13T01:25:33.853Z,62.95
2019-05-13T01:28:04.502Z,63.48
2019-05-13T01:30:34.643Z,63.02
2019-05-13T01:33:04.421Z,62.93
2019-05-13T01:35:34.351Z,62.93
2019-05-13T01:38:04.549Z,63.82
2019-05-13T01:40:34.801Z,67.96
2019-05-13T01:43:03.891Z,67.66
2019-05-13T01:45:33.750Z,65.66
2019-05-13T01:48:06.957Z,64.11
2019-05-13T01:50:33.709Z,65.12
2019-05-13T01:53:04.162Z,64.21
2019-05-13T01:55:33.903Z,64.65
2019-05-13T01:58:04.238Z,64.70
2019-05-13T02:00:35.429Z,63.79
2019-05-13T02:03:04.324Z,63.56
2019-05-13T02:05:33.966Z,63.55
2019-05-13T02:08:04.483Z,63.04
2019-05-13T02:10:50.971Z,63.25
2019-05-13T02:13:19.564Z,62.53
2019-05-13T02:15:48.248Z,64.46
2019-05-13T02:18:16.834Z,66.05
2019-05-13T02:20:45.489Z,65.55
2019-05-13T02:23:14.562Z,63.95
2019-05-13T02:25:43.652Z,64.08
2019-05-13T02:28:13.887Z,64.06
2019-05-13T02:30:45.511Z,65.67
2019-05-13T02:33:13.510Z,65.21
2019-05-13T02:35:43.564Z,65.11
2019-05-13T02:38:22.745Z,65.07
2019-05-13T02:40:43.464Z,64.84
2019-05-13T02:43:13.557Z,65.04
2019-05-13T02:45:43.486Z,65.17
2019-05-13T02:48:12.873Z,65.72
2019-05-13T02:50:44.136Z,65.99
2019-05-13T02:53:13.665Z,72.22
2019-05-13T02:55:43.667Z,68.55
2019-05-13T02:58:12.862Z,66.45
2019-05-13T03:00:44.130Z,66.02
2019-05-13T03:03:12.929Z,66.17
2019-05-13T03:05:42.911Z,66.78
2019-05-13T03:08:12.664Z,66.50
2019-05-13T03:10:43.410Z,66.12
2019-05-13T03:13:13.008Z,65.97
2019-05-13T03:15:43.113Z,65.02
2019-05-13T03:18:13.373Z,64.45
2019-05-13T03:20:43.233Z,64.34
2019-05-13T03:23:13.717Z,64.10
2019-05-13T03:25:43.151Z,64.87
2019-05-13T03:28:13.478Z,76.99
2019-05-13T03:30:45.703Z,68.33
2019-05-13T03:33:18.566Z,65.94
2019-05-13T03:35:45.578Z,65.17
2019-05-13T03:38:13.697Z,65.47
2019-05-13T03:40:43.000Z,68.02
2019-05-13T03:43:13.462Z,67.67
2019-05-13T03:45:43.610Z,67.37
2019-05-13T03:48:13.400Z,66.84
2019-05-13T03:50:43.399Z,66.06
2019-05-13T03:53:13.239Z,65.99
2019-05-13T03:55:43.579Z,65.72
2019-05-13T03:58:13.466Z,65.77
2019-05-13T04:00:43.398Z,67.32
2019-05-13T04:03:13.732Z,68.36
2019-05-13T04:05:43.803Z,69.52
2019-05-13T04:08:13.392Z,67.00
2019-05-13T04:10:42.889Z,66.47
2019-05-13T04:13:12.540Z,65.69
2019-05-13T04:15:42.798Z,66.50
2019-05-13T04:18:12.531Z,66.66
2019-05-13T04:20:42.338Z,66.05
2019-05-13T04:23:12.831Z,65.34
2019-05-13T04:25:44.666Z,65.10
2019-05-13T04:28:13.603Z,64.71
2019-05-13T04:30:43.739Z,64.72
2019-05-13T04:33:14.126Z,64.49
2019-05-13T04:35:43.152Z,65.22
2019-05-13T04:38:13.177Z,66.99
2019-05-13T04:40:42.562Z,68.48
2019-05-13T04:43:12.952Z,66.42
2019-05-13T04:45:43.033Z,65.48
2019-05-13T04:48:12.756Z,65.19
2019-05-13T04:50:43.227Z,66.11
2019-05-13T04:53:13.651Z,66.47
2019-05-13T04:55:43.991Z,65.59
2019-05-13T04:58:13.265Z,64.92
2019-05-13T05:01:08.146Z,64.72
2019-05-13T05:06:22.946Z,63.67
2019-05-13T05:09:12.880Z,63.30
2019-05-13T05:11:44.409Z,64.55
2019-05-13T05:14:41.638Z,66.00
2019-05-13T05:17:15.148Z,68.05
2019-05-13T05:20:08.230Z,65.07
2019-05-13T05:23:02.122Z,63.77
2019-05-13T05:25:52.903Z,63.84
2019-05-13T05:28:41.498Z,64.36
2019-05-13T05:31:32.371Z,65.08
2019-05-13T05:34:06.761Z,64.02
2019-05-13T05:37:07.000Z,63.76
2019-05-13T05:39:37.808Z,64.41
2019-05-13T05:42:07.506Z,64.37
2019-05-13T05:44:37.392Z,63.11
2019-05-13T05:47:06.080Z,62.78
2019-05-13T05:49:36.228Z,63.67
2019-05-13T05:52:06.965Z,67.04
2019-05-13T05:54:38.685Z,64.41
2019-05-13T05:57:08.891Z,62.82
2019-05-13T05:59:38.749Z,61.63
2019-05-13T06:02:08.188Z,61.99
2019-05-13T06:04:36.919Z,61.74
2019-05-13T06:07:06.198Z,61.95
2019-05-13T06:09:34.798Z,62.64
2019-05-13T06:12:03.379Z,62.09
2019-05-13T06:14:32.843Z,61.50
2019-05-13T06:17:02.683Z,61.29
2019-05-13T06:19:32.222Z,60.67
2019-05-13T06:22:02.318Z,61.00
2019-05-13T06:24:31.524Z,61.32
2019-05-13T06:27:01.664Z,61.80
2019-05-13T06:29:31.719Z,58.08
2019-05-13T06:32:15.063Z,57.65
2019-05-13T06:34:32.844Z,56.71
2019-05-13T06:37:01.973Z,56.44
2019-05-13T06:39:31.684Z,56.59
2019-05-13T06:42:02.640Z,57.52
2019-05-13T06:44:31.751Z,57.50
2019-05-13T06:47:02.494Z,57.03
2019-05-13T06:49:32.242Z,57.08
2019-05-13T06:52:01.653Z,57.20
2019-05-13T06:54:33.031Z,57.00
2019-05-13T06:57:04.294Z,56.89
2019-05-13T06:59:31.745Z,56.20
2019-05-13T07:02:02.088Z,54.28
2019-05-13T07:04:32.780Z,54.28
2019-05-13T07:07:12.244Z,53.33
2019-05-13T07:09:32.289Z,53.35
2019-05-13T07:12:02.848Z,53.53
2019-05-13T07:14:32.433Z,53.10
2019-05-13T07:17:02.132Z,52.39
2019-05-13T07:19:32.264Z,52.70
2019-05-13T07:22:02.720Z,52.74
2019-05-13T07:24:32.409Z,52.75
2019-05-13T07:27:02.011Z,52.75
2019-05-13T07:29:32.424Z,52.17
2019-05-13T07:32:01.925Z,51.55
2019-05-13T07:34:33.734Z,50.64
2019-05-13T07:37:02.234Z,52.05
2019-05-13T07:39:32.679Z,49.77
2019-05-13T07:42:05.420Z,48.82
2019-05-13T07:44:32.518Z,48.34
2019-05-13T07:47:03.526Z,47.43
2019-05-13T07:49:31.912Z,48.25
2019-05-13T07:52:01.612Z,48.37
2019-05-13T07:54:32.852Z,46.46
2019-05-13T07:57:01.958Z,46.28
2019-05-13T07:59:31.755Z,47.36
2019-05-13T08:02:02.207Z,47.59
2019-05-13T08:04:33.610Z,46.99
2019-05-13T08:07:02.094Z,46.26
2019-05-13T08:09:31.856Z,45.01
2019-05-13T08:12:10.186Z,44.18
2019-05-13T08:14:32.819Z,44.18
2019-05-13T08:17:02.630Z,44.52
2019-05-13T08:19:32.501Z,44.82
2019-05-13T08:22:02.197Z,43.71
2019-05-13T08:24:31.623Z,43.70
2019-05-13T08:27:02.110Z,43.17
2019-05-13T08:29:32.769Z,42.82
2019-05-13T08:32:02.699Z,41.85
2019-05-13T08:34:32.932Z,43.80
2019-05-13T08:37:02.978Z,42.29
2019-05-13T08:39:36.320Z,40.14
2019-05-13T08:42:12.921Z,39.93
2019-05-13T08:44:32.873Z,40.72
2019-05-13T08:47:03.080Z,39.64
2019-05-13T08:49:32.636Z,39.05
2019-05-13T08:52:01.772Z,39.51
2019-05-13T08:54:32.925Z,39.58
2019-05-13T08:57:03.013Z,39.07
2019-05-13T08:59:32.004Z,38.16
2019-05-13T09:02:03.099Z,38.73
2019-05-13T09:04:31.652Z,37.35
2019-05-13T09:07:02.089Z,37.81
2019-05-13T09:09:31.612Z,36.52
2019-05-13T09:12:02.444Z,35.23
2019-05-13T09:17:02.018Z,37.24
2019-05-13T09:19:32.275Z,36.22
2019-05-13T09:22:03.113Z,35.79
2019-05-13T09:24:37.304Z,36.25
2019-05-13T09:27:02.288Z,36.25
2019-05-13T09:29:32.292Z,36.19
2019-05-13T09:32:03.941Z,35.35
2019-05-13T09:34:32.788Z,35.24
2019-05-13T09:37:02.713Z,35.08
2019-05-13T09:39:32.445Z,35.49
2019-05-13T09:42:02.870Z,35.11
2019-05-13T09:44:32.695Z,35.86
2019-05-13T09:47:02.656Z,35.41
2019-05-13T09:49:32.929Z,34.72
2019-05-13T09:52:02.116Z,34.86
2019-05-13T09:54:32.905Z,35.00
2019-05-13T09:57:01.937Z,34.78
2019-05-13T10:02:03.095Z,34.63
2019-05-13T10:04:31.949Z,33.97
2019-05-13T10:07:02.269Z,34.28
2019-05-13T10:09:32.554Z,33.97
2019-05-13T10:12:03.202Z,34.19
2019-05-13T10:14:32.910Z,34.34
2019-05-13T10:17:05.949Z,34.67
2019-05-13T10:19:32.498Z,33.64
2019-05-13T10:22:01.344Z,31.64
2019-05-13T10:24:32.351Z,32.41
2019-05-13T10:27:02.467Z,32.88
2019-05-13T10:29:32.100Z,32.79
2019-05-13T10:32:02.745Z,32.45
2019-05-13T10:34:32.447Z,31.19
2019-05-13T10:37:02.561Z,31.56
2019-05-13T10:39:32.202Z,31.65
2019-05-13T10:42:03.567Z,31.86
2019-05-13T10:44:31.040Z,31.34
2019-05-13T10:47:01.988Z,31.02
2019-05-13T10:49:32.754Z,29.12
2019-05-13T10:52:02.856Z,30.31
2019-05-13T10:54:32.474Z,29.65
2019-05-13T10:57:03.576Z,29.33
2019-05-13T10:59:30.869Z,28.76
2019-05-13T11:02:02.127Z,28.81
2019-05-13T11:04:32.034Z,28.89
2019-05-13T11:07:02.932Z,28.95
2019-05-13T11:09:32.538Z,28.09
2019-05-13T11:12:02.086Z,28.37
2019-05-13T11:14:32.343Z,29.68
2019-05-13T11:17:01.767Z,28.94
2019-05-13T11:19:36.129Z,28.16
2019-05-13T11:22:02.732Z,27.42
2019-05-13T11:24:32.461Z,27.31
2019-05-13T11:27:02.800Z,27.49
2019-05-13T11:29:32.557Z,27.87
2019-05-13T11:32:02.725Z,28.03
2019-05-13T11:34:32.874Z,27.88
2019-05-13T11:37:03.599Z,27.70
2019-05-13T11:39:32.521Z,27.59
2019-05-13T11:42:02.342Z,27.78
2019-05-13T11:44:32.183Z,27.46
2019-05-13T11:47:02.441Z,27.24
2019-05-13T11:49:31.738Z,27.35
2019-05-13T11:52:02.886Z,27.52
2019-05-13T11:54:30.980Z,27.48
2019-05-13T11:57:02.632Z,27.46
2019-05-13T11:59:32.742Z,26.55
2019-05-13T12:02:04.562Z,27.90
2019-05-13T12:04:33.053Z,27.48
2019-05-13T12:07:03.611Z,27.77
2019-05-13T12:09:32.000Z,27.34
2019-05-13T12:12:03.185Z,27.30
2019-05-13T12:14:47.145Z,27.27
2019-05-13T12:17:02.321Z,26.29
2019-05-13T12:19:31.056Z,27.08
2019-05-13T12:22:02.652Z,26.70
2019-05-13T12:24:30.105Z,26.91
2019-05-13T12:26:58.685Z,26.37
2019-05-13T12:29:27.312Z,27.05
2019-05-13T12:31:56.096Z,26.73
2019-05-13T12:34:24.639Z,25.56
2019-05-13T12:36:53.365Z,26.95
2019-05-13T12:39:23.839Z,25.52
2019-05-13T12:41:53.840Z,24.88
2019-05-13T12:44:22.960Z,25.87
2019-05-13T12:46:54.409Z,26.42
2019-05-13T12:49:22.315Z,27.01
2019-05-13T12:51:51.694Z,26.71
2019-05-13T12:54:23.452Z,26.94
2019-05-13T12:59:22.233Z,25.86
2019-05-13T13:01:52.759Z,25.80
2019-05-13T13:06:53.112Z,25.56
2019-05-13T13:09:22.489Z,25.41
2019-05-13T13:11:54.436Z,25.68
2019-05-13T13:14:21.445Z,25.25
2019-05-13T13:16:54.143Z,26.12
2019-05-13T13:19:22.092Z,26.84
2019-05-13T13:21:53.382Z,24.46
2019-05-13T13:24:23.575Z,26.03
2019-05-13T13:26:53.396Z,25.86
2019-05-13T13:29:22.183Z,25.96
2019-05-13T13:31:55.518Z,24.60
2019-05-13T13:34:25.884Z,25.06
2019-05-13T13:36:52.634Z,25.21
2019-05-13T13:39:25.214Z,24.96
2019-05-13T13:41:53.224Z,24.60
2019-05-13T13:44:24.659Z,24.27
2019-05-13T13:46:54.988Z,25.04
2019-05-13T13:49:23.289Z,24.26
2019-05-13T13:51:52.060Z,24.13
2019-05-13T13:54:22.391Z,24.60
2019-05-13T13:56:55.835Z,25.02
2019-05-13T13:59:24.517Z,24.72
2019-05-13T14:01:54.816Z,24.15
2019-05-13T14:04:22.551Z,23.73
2019-05-13T14:06:25.038Z,34.71
2019-05-13T14:06:35.511Z,26.51
2019-05-13T14:07:02.788Z,34.24
2019-05-13T14:09:22.481Z,24.41
2019-05-13T14:11:51.717Z,24.50
2019-05-13T14:14:21.540Z,23.23
2019-05-13T14:16:51.819Z,23.74
2019-05-13T14:19:21.975Z,24.78
2019-05-13T14:21:52.636Z,22.39
2019-05-13T14:24:21.876Z,24.02
2019-05-13T14:26:52.329Z,24.70
2019-05-13T14:29:36.256Z,24.38
2019-05-13T14:31:52.295Z,24.15
2019-05-13T14:34:21.817Z,24.57
2019-05-13T14:36:51.837Z,25.06
2019-05-13T14:39:22.217Z,23.32
2019-05-13T14:41:51.983Z,24.48
2019-05-13T14:44:21.946Z,23.58
2019-05-13T14:46:52.381Z,24.16
2019-05-13T14:49:22.585Z,23.46
2019-05-13T14:51:55.704Z,24.15
2019-05-13T14:54:22.279Z,24.48
2019-05-13T14:56:52.045Z,24.41
2019-05-13T14:59:22.098Z,23.81
2019-05-13T15:01:51.899Z,23.93
2019-05-13T15:04:22.278Z,24.53
2019-05-13T15:06:51.149Z,23.61
2019-05-13T15:09:20.143Z,23.94
2019-05-13T15:11:52.564Z,24.24
2019-05-13T15:14:21.959Z,24.44
2019-05-13T15:17:02.293Z,24.31
2019-05-13T15:19:22.306Z,26.13
2019-05-13T15:21:52.110Z,24.41
2019-05-13T15:24:21.353Z,25.10
2019-05-13T15:26:51.710Z,24.99
2019-05-13T15:29:22.284Z,25.25
2019-05-13T15:31:51.431Z,24.95
2019-05-13T15:34:20.103Z,24.27
2019-05-13T15:36:50.768Z,25.30
2019-05-13T15:39:19.156Z,25.21
2019-05-13T15:41:47.777Z,23.85
2019-05-13T15:44:16.439Z,25.53
2019-05-13T15:46:45.019Z,25.11
2019-05-13T15:49:13.525Z,25.50
2019-05-13T15:51:42.462Z,24.99
2019-05-13T15:54:15.311Z,25.80
2019-05-13T15:56:41.355Z,25.73
2019-05-13T15:59:12.373Z,25.30
2019-05-13T16:01:41.496Z,25.06
2019-05-13T16:04:12.810Z,25.04
2019-05-13T16:06:41.800Z,24.82
2019-05-13T16:09:11.681Z,24.43
2019-05-13T16:11:41.471Z,24.20
2019-05-13T16:14:11.725Z,24.33
2019-05-13T16:16:41.729Z,24.34
2019-05-13T16:19:10.514Z,25.23
2019-05-13T16:21:41.351Z,25.72
2019-05-13T16:24:11.739Z,24.98
2019-05-13T16:26:42.376Z,24.34
2019-05-13T16:29:12.537Z,24.64
2019-05-13T16:31:41.609Z,24.57
2019-05-13T16:34:11.139Z,25.08
2019-05-13T16:36:42.847Z,25.46
2019-05-13T16:39:12.373Z,24.90
2019-05-13T16:41:42.586Z,25.09
2019-05-13T16:44:12.105Z,25.51
2019-05-13T16:46:42.398Z,25.07
2019-05-13T16:49:12.114Z,25.62
2019-05-13T16:51:42.584Z,25.44
2019-05-13T16:54:11.381Z,24.96
2019-05-13T16:56:42.112Z,25.65
2019-05-13T16:59:10.329Z,25.50
2019-05-13T17:01:38.927Z,25.79
2019-05-13T17:04:07.535Z,25.43
2019-05-13T17:06:36.125Z,25.86
2019-05-13T17:09:06.405Z,26.97
2019-05-13T17:11:35.050Z,26.84
2019-05-13T17:14:05.794Z,26.54
2019-05-13T17:16:34.231Z,26.66
2019-05-13T17:19:02.842Z,26.80
2019-05-13T17:21:31.756Z,26.90
2019-05-13T17:24:01.573Z,26.43
2019-05-13T17:26:32.524Z,27.12
2019-05-13T17:29:01.414Z,27.16
2019-05-13T17:31:32.401Z,27.56
2019-05-13T17:34:01.502Z,27.53
2019-05-13T17:36:32.334Z,27.34
2019-05-13T17:39:01.805Z,27.14
2019-05-13T17:41:32.099Z,28.15
2019-05-13T17:44:02.396Z,28.85
2019-05-13T17:46:32.661Z,28.29
2019-05-13T17:49:01.319Z,28.66
2019-05-13T17:51:29.885Z,29.08
2019-05-13T17:53:58.484Z,28.93
2019-05-13T17:56:27.084Z,29.03
2019-05-13T17:58:55.667Z,29.07
2019-05-13T18:01:24.523Z,29.01
2019-05-13T18:03:53.100Z,29.37
2019-05-13T18:06:21.723Z,29.54
2019-05-13T18:08:51.741Z,29.27
2019-05-13T18:11:21.909Z,29.33
2019-05-13T18:13:51.876Z,29.31
2019-05-13T18:16:21.775Z,29.82
2019-05-13T18:18:52.106Z,29.36
2019-05-13T18:21:20.972Z,29.34
2019-05-13T18:23:51.944Z,30.07
2019-05-13T18:26:21.600Z,30.08
2019-05-13T18:28:51.515Z,30.29
2019-05-13T18:31:20.231Z,29.63
2019-05-13T18:33:50.972Z,29.62
2019-05-13T18:36:19.218Z,31.12
2019-05-13T18:38:47.806Z,30.38
2019-05-13T18:41:16.421Z,30.85
2019-05-13T18:43:45.039Z,30.57
2019-05-13T18:46:13.561Z,30.95
2019-05-13T18:48:57.365Z,31.59
2019-05-13T18:51:12.408Z,31.34
2019-05-13T18:53:41.539Z,31.16
2019-05-13T18:56:12.401Z,31.35
2019-05-13T18:58:40.596Z,32.97
2019-05-13T19:01:11.234Z,31.80
2019-05-13T19:03:41.410Z,32.11
2019-05-13T19:06:11.628Z,32.23
2019-05-13T19:08:41.416Z,32.28
2019-05-13T19:11:11.800Z,32.81
2019-05-13T19:13:41.718Z,32.85
2019-05-13T19:16:11.828Z,33.50
2019-05-13T19:18:42.283Z,33.50
2019-05-13T19:21:10.773Z,33.17
2019-05-13T19:23:39.265Z,33.50
2019-05-13T19:26:07.847Z,34.07
2019-05-13T19:28:36.436Z,34.62
2019-05-13T19:31:05.035Z,34.62
2019-05-13T19:33:33.598Z,35.59
2019-05-13T19:36:02.264Z,36.14
2019-05-13T19:38:31.966Z,35.66
2019-05-13T19:41:01.884Z,36.18
2019-05-13T19:43:31.419Z,36.61
2019-05-13T19:46:01.538Z,36.11
2019-05-13T19:48:32.646Z,35.56
2019-05-13T19:51:01.529Z,36.87
2019-05-13T19:53:31.883Z,35.72
2019-05-13T19:56:01.433Z,35.91
2019-05-13T19:58:32.237Z,35.88
2019-05-13T20:01:00.388Z,36.40
2019-05-13T20:03:31.492Z,36.37
2019-05-13T20:05:59.299Z,37.75
2019-05-13T20:08:27.908Z,37.11
2019-05-13T20:10:56.504Z,36.72
2019-05-13T20:13:25.055Z,36.41
2019-05-13T20:15:53.582Z,37.60
2019-05-13T20:18:22.905Z,37.22
2019-05-13T20:20:52.408Z,36.89
2019-05-13T20:23:21.371Z,36.71
2019-05-13T20:25:52.266Z,36.54
2019-05-13T20:28:21.106Z,36.83
2019-05-13T20:30:51.143Z,36.82
2019-05-13T20:33:22.020Z,36.82
2019-05-13T20:35:50.093Z,36.66
2019-05-13T20:38:18.695Z,36.13
2019-05-13T20:40:47.351Z,36.04
2019-05-13T20:43:16.031Z,36.33
2019-05-13T20:45:44.649Z,36.53
2019-05-13T20:48:13.227Z,37.21
2019-05-13T20:50:41.861Z,36.86
2019-05-13T20:53:11.507Z,36.75
2019-05-13T20:55:41.787Z,36.89
2019-05-13T20:58:12.799Z,36.89
2019-05-13T21:00:42.227Z,37.25
2019-05-13T21:03:11.742Z,37.43
2019-05-13T21:05:41.567Z,37.80
2019-05-13T21:08:10.346Z,37.49
2019-05-13T21:10:38.968Z,37.98
2019-05-13T21:13:07.587Z,38.37
2019-05-13T21:15:36.172Z,38.14
2019-05-13T21:18:04.758Z,38.25
2019-05-13T21:20:33.343Z,38.87
2019-05-13T21:23:02.367Z,38.72
2019-05-13T21:25:31.227Z,38.92
2019-05-13T21:28:01.951Z,39.21
2019-05-13T21:30:30.069Z,39.34
2019-05-13T21:32:58.699Z,39.51
2019-05-13T21:35:27.271Z,39.77
2019-05-13T21:37:55.954Z,39.42
2019-05-13T21:40:24.574Z,39.43
2019-05-13T21:42:53.211Z,40.07
2019-05-13T21:45:21.852Z,40.06
2019-05-13T21:47:50.438Z,40.05
2019-05-13T21:50:31.124Z,40.30
2019-05-13T21:52:51.443Z,40.15
2019-05-13T21:55:21.689Z,40.75
2019-05-13T21:57:50.100Z,40.80
2019-05-13T22:00:23.766Z,42.73
2019-05-13T22:02:52.484Z,42.05
2019-05-13T22:05:22.188Z,41.53
2019-05-13T22:07:50.826Z,41.72
2019-05-13T22:10:21.513Z,42.37
2019-05-13T22:12:51.926Z,42.45
2019-05-13T22:15:21.837Z,42.31
2019-05-13T22:17:51.271Z,42.61
2019-05-13T22:20:21.349Z,42.12
2019-05-13T22:22:51.965Z,42.37
2019-05-13T22:25:20.222Z,42.86
2019-05-13T22:27:48.837Z,42.92
2019-05-13T22:30:17.819Z,42.64
2019-05-13T22:32:46.277Z,43.07
2019-05-13T22:35:14.917Z,43.35
2019-05-13T22:37:43.494Z,43.24
2019-05-13T22:40:12.110Z,44.56
2019-05-13T22:42:41.570Z,43.74
2019-05-13T22:45:11.753Z,43.74
2019-05-13T22:47:41.768Z,43.80
2019-05-13T22:50:11.589Z,43.98
2019-05-13T22:52:41.961Z,44.07
2019-05-13T22:55:11.748Z,44.64
2019-05-13T22:57:42.029Z,44.89
2019-05-13T23:00:11.863Z,44.87
2019-05-13T23:02:42.075Z,44.62
2019-05-13T23:05:11.398Z,45.05
2019-05-13T23:07:40.009Z,45.41
2019-05-13T23:10:08.945Z,45.91
2019-05-13T23:12:37.379Z,52.61
2019-05-13T23:15:09.059Z,48.86
2019-05-13T23:17:37.674Z,48.86
2019-05-13T23:20:06.933Z,47.49
2019-05-13T23:22:35.488Z,48.46
2019-05-13T23:25:05.781Z,49.67
2019-05-13T23:27:34.273Z,49.34
2019-05-13T23:30:03.089Z,49.24
2019-05-13T23:32:32.094Z,50.03
2019-05-13T23:35:01.981Z,48.74
2019-05-13T23:37:31.051Z,49.03
2019-05-13T23:40:01.437Z,49.51
2019-05-13T23:42:31.966Z,50.34
2019-05-13T23:45:00.324Z,51.63
2019-05-13T23:47:31.095Z,55.06
2019-05-13T23:50:01.721Z,52.82
2019-05-13T23:52:31.206Z,50.58
2019-05-13T23:55:02.133Z,51.15
2019-05-13T23:57:31.387Z,51.28
2019-05-13T23:59:59.899Z,52.65
